createdAt,value
2022-09-28T00:01:18.822Z,97054.81
2022-09-28T00:03:47.597Z,97045.16
2022-09-28T00:06:16.952Z,97037.34
2022-09-28T00:08:46.791Z,97028.47
2022-09-28T00:11:15.598Z,97026.66
2022-09-28T00:13:44.206Z,97020.41
2022-09-28T00:16:15.173Z,97020.66
2022-09-28T00:18:41.932Z,97014.16
2022-09-28T00:21:18.689Z,97006.06
2022-09-28T00:24:04.578Z,97008.44
2022-09-28T00:26:33.403Z,97006.63
2022-09-28T00:29:04.558Z,97002.69
2022-09-28T00:31:34.550Z,96997.47
2022-09-28T00:34:02.626Z,96987.56
2022-09-28T00:36:33.431Z,96988.59
2022-09-28T00:39:05.131Z,96970.13
2022-09-28T00:41:36.251Z,96964.69
2022-09-28T00:44:26.523Z,96971.69
2022-09-28T00:47:09.095Z,96975.88
2022-09-28T00:49:44.667Z,96966.75
2022-09-28T00:52:15.971Z,96953.72
2022-09-28T00:54:46.192Z,96958.38
2022-09-28T00:57:14.329Z,96941.72
2022-09-28T00:59:42.271Z,96958.13
2022-09-28T01:02:10.717Z,96956.00
2022-09-28T01:04:38.907Z,96945.59
2022-09-28T01:07:09.950Z,96932.59
2022-09-28T01:09:39.783Z,96929.50
2022-09-28T01:12:07.235Z,96925.31
2022-09-28T01:14:34.286Z,96921.41
2022-09-28T01:17:10.531Z,96916.19
2022-09-28T01:19:59.237Z,96903.16
2022-09-28T01:22:51.063Z,96895.63
2022-09-28T01:25:34.144Z,96881.78
2022-09-28T01:28:12.283Z,96884.41
2022-09-28T01:30:49.716Z,96877.34
2022-09-28T01:36:24.152Z,96879.75
2022-09-28T01:38:59.441Z,96872.19
2022-09-28T01:41:31.931Z,96857.84
2022-09-28T01:46:50.713Z,96845.38
2022-09-28T01:49:24.486Z,96850.56
2022-09-28T01:52:10.238Z,96844.84
2022-09-28T01:57:58.416Z,96830.28
2022-09-28T02:00:26.376Z,96829.50
2022-09-28T02:03:00.294Z,96826.59
2022-09-28T02:05:37.184Z,96820.63
2022-09-28T02:08:09.681Z,96819.84
2022-09-28T02:11:13.359Z,96814.91
2022-09-28T02:16:46.103Z,96800.06
2022-09-28T02:22:36.011Z,96804.22
2022-09-28T02:25:15.060Z,96795.09
2022-09-28T02:30:42.291Z,96797.69
2022-09-28T02:36:15.855Z,96792.00
2022-09-28T02:41:53.895Z,96782.59
2022-09-28T02:44:45.446Z,96783.09
2022-09-28T02:47:28.421Z,96785.69
2022-09-28T02:50:16.097Z,96786.75
2022-09-28T02:53:10.216Z,96782.81
2022-09-28T02:55:54.875Z,96782.03
2022-09-28T02:58:49.242Z,96770.06
2022-09-28T03:01:40.126Z,96772.16
2022-09-28T03:04:27.173Z,96762.53
2022-09-28T03:07:01.614Z,96760.97
2022-09-28T03:10:10.338Z,96762.78
2022-09-28T03:12:39.350Z,96756.81
2022-09-28T03:15:32.026Z,96745.38
2022-09-28T03:18:02.356Z,96740.66
2022-09-28T03:20:36.180Z,96739.13
2022-09-28T03:23:25.286Z,96736.00
2022-09-28T03:25:53.504Z,96726.88
2022-09-28T03:28:30.482Z,96714.91
2022-09-28T03:30:58.657Z,96715.94
2022-09-28T03:33:28.981Z,96716.72
2022-09-28T03:35:56.079Z,96706.31
2022-09-28T03:38:29.581Z,96705.53
2022-09-28T03:41:02.815Z,96699.03
2022-09-28T03:43:35.259Z,96693.81
2022-09-28T03:48:54.451Z,96686.31
2022-09-28T03:54:09.587Z,96678.47
2022-09-28T03:56:38.202Z,96669.63
2022-09-28T04:01:49.088Z,96666.53
2022-09-28T04:04:21.156Z,96655.34
2022-09-28T04:07:17.142Z,96665.22
2022-09-28T04:10:08.966Z,96661.84
2022-09-28T04:15:28.358Z,96653.75
2022-09-28T04:29:22.088Z,96631.09
2022-09-28T04:32:02.724Z,96623.56
2022-09-28T05:00:06.647Z,96595.88
2022-09-28T05:02:33.591Z,96591.19
2022-09-28T05:05:00.899Z,96597.13
2022-09-28T05:07:32.712Z,96592.16
2022-09-28T05:10:00.633Z,96591.09
2022-09-28T05:12:27.380Z,96597.63
2022-09-28T05:14:54.162Z,96599.69
2022-09-28T05:17:20.835Z,96594.00
2022-09-28T05:19:47.684Z,96584.63
2022-09-28T05:22:20.279Z,96589.56
2022-09-28T05:24:47.270Z,96577.81
2022-09-28T05:27:13.790Z,96577.81
2022-09-28T05:29:43.480Z,96577.03
2022-09-28T05:32:10.142Z,96572.84
2022-09-28T05:34:37.087Z,96579.06
2022-09-28T05:37:03.914Z,96591.50
2022-09-28T05:39:34.863Z,96604.78
2022-09-28T05:42:01.570Z,96599.88
2022-09-28T05:44:28.082Z,96597.44
2022-09-28T05:46:54.978Z,96589.56
2022-09-28T05:49:22.077Z,96590.16
2022-09-28T05:51:48.816Z,96600.09
2022-09-28T05:54:19.094Z,96593.53
2022-09-28T05:56:47.909Z,96593.75
2022-09-28T05:59:14.572Z,96584.53
2022-09-28T06:01:41.182Z,96587.41
2022-09-28T06:04:10.966Z,96575.94
2022-09-28T06:06:40.424Z,96587.94
2022-09-28T06:09:07.328Z,96592.88
2022-09-28T06:11:38.730Z,96586.06
2022-09-28T06:14:05.401Z,96585.53
2022-09-28T06:16:32.587Z,96588.91
2022-09-28T06:18:59.172Z,96586.28
2022-09-28T06:21:29.022Z,96589.63
2022-09-28T06:23:55.766Z,96587.72
2022-09-28T06:26:22.628Z,96590.81
2022-09-28T06:28:49.617Z,96600.50
2022-09-28T06:31:23.717Z,96601.50
2022-09-28T06:33:51.588Z,96605.03
2022-09-28T06:36:21.447Z,96611.88
2022-09-28T06:38:48.558Z,96610.59
2022-09-28T06:41:15.368Z,96615.81
2022-09-28T06:43:42.089Z,96625.16
2022-09-28T06:46:10.079Z,96620.53
2022-09-28T06:48:38.028Z,96616.41
2022-09-28T06:51:04.600Z,96619.75
2022-09-28T06:53:32.453Z,96612.94
2022-09-28T06:55:58.842Z,96618.06
2022-09-28T06:58:27.105Z,96619.47
2022-09-28T07:00:59.155Z,96626.53
2022-09-28T07:03:26.495Z,96620.28
2022-09-28T07:05:54.957Z,96623.63
2022-09-28T07:08:24.799Z,96633.25
2022-09-28T07:10:56.120Z,96625.16
2022-09-28T07:13:46.492Z,96631.66
2022-09-28T07:16:12.473Z,96629.06
2022-09-28T07:18:39.267Z,96636.13
2022-09-28T07:21:08.546Z,96647.59
2022-09-28T07:23:45.850Z,96647.38
2022-09-28T07:26:20.885Z,96651.72
2022-09-28T07:28:49.164Z,96663.28
2022-09-28T07:31:15.744Z,96667.97
2022-09-28T07:33:42.265Z,96662.25
2022-09-28T07:36:08.813Z,96655.03
2022-09-28T07:38:35.753Z,96663.75
2022-09-28T07:41:11.383Z,96655.72
2022-09-28T07:43:41.836Z,96659.47
2022-09-28T07:46:09.945Z,96662.13
2022-09-28T07:48:37.829Z,96660.81
2022-09-28T07:51:08.170Z,96660.94
2022-09-28T07:53:35.264Z,96663.47
2022-09-28T07:56:10.071Z,96660.13
2022-09-28T07:58:38.557Z,96663.69
2022-09-28T08:01:16.443Z,96677.44
2022-09-28T08:03:47.144Z,96683.78
2022-09-28T08:06:17.566Z,96676.38
2022-09-28T08:08:44.629Z,96678.91
2022-09-28T08:11:17.861Z,96681.28
2022-09-28T08:13:46.331Z,96677.94
2022-09-28T08:16:13.218Z,96682.47
2022-09-28T08:18:40.016Z,96687.03
2022-09-28T08:21:25.010Z,96688.59
2022-09-28T08:23:51.842Z,96698.53
2022-09-28T08:26:21.766Z,96715.78
2022-09-28T08:28:48.386Z,96720.88
2022-09-28T08:31:14.946Z,96724.47
2022-09-28T08:33:42.106Z,96720.97
2022-09-28T08:36:10.098Z,96720.59
2022-09-28T08:38:36.851Z,96729.19
2022-09-28T08:41:12.231Z,96724.72
2022-09-28T08:43:59.981Z,96723.47
2022-09-28T08:46:32.177Z,96725.22
2022-09-28T08:49:24.122Z,96724.91
2022-09-28T08:51:58.591Z,96717.94
2022-09-28T08:54:30.958Z,96713.28
2022-09-28T08:57:21.201Z,96711.06
2022-09-28T08:59:56.847Z,96707.59
2022-09-28T09:02:33.644Z,96718.41
2022-09-28T09:05:06.235Z,96724.72
2022-09-28T09:08:03.801Z,96736.06
2022-09-28T09:10:51.357Z,96744.56
2022-09-28T09:13:51.833Z,96750.38
2022-09-28T09:16:24.404Z,96749.56
2022-09-28T09:19:22.736Z,96759.00
2022-09-28T09:21:58.108Z,96773.28
2022-09-28T09:24:27.408Z,96772.84
2022-09-28T09:27:07.005Z,96781.97
2022-09-28T09:29:47.433Z,96792.44
2022-09-28T09:32:17.065Z,96802.41
2022-09-28T09:35:01.551Z,96800.50
2022-09-28T09:37:45.852Z,96796.63
2022-09-28T09:40:34.235Z,96792.44
2022-09-28T09:43:28.089Z,96784.47
2022-09-28T09:46:20.012Z,96787.72
2022-09-28T09:48:50.710Z,96790.00
2022-09-28T09:51:43.060Z,96803.22
2022-09-28T09:54:34.453Z,96802.22
2022-09-28T09:57:13.247Z,96805.09
2022-09-28T09:59:42.966Z,96808.06
2022-09-28T10:02:21.997Z,96817.91
2022-09-28T10:04:54.953Z,96813.78
2022-09-28T10:07:50.392Z,96821.31
2022-09-28T10:10:41.340Z,96816.41
2022-09-28T10:13:09.378Z,96817.72
2022-09-28T10:15:36.426Z,96811.38
2022-09-28T10:18:12.296Z,96818.16
2022-09-28T10:20:41.315Z,96816.25
2022-09-28T10:23:17.994Z,96815.88
2022-09-28T10:26:02.339Z,96815.53
2022-09-28T10:28:48.487Z,96811.91
2022-09-28T10:31:35.663Z,96813.13
2022-09-28T10:34:03.411Z,96816.31
2022-09-28T10:36:38.166Z,96819.97
2022-09-28T10:39:06.690Z,96826.91
2022-09-28T10:41:33.405Z,96831.63
2022-09-28T10:44:06.833Z,96836.44
2022-09-28T10:46:35.214Z,96841.91
2022-09-28T10:49:13.456Z,96836.00
2022-09-28T10:52:03.671Z,96836.75
2022-09-28T10:54:32.053Z,96831.91
2022-09-28T10:57:00.248Z,96828.38
2022-09-28T10:59:29.847Z,96819.91
2022-09-28T11:02:13.589Z,96823.94
2022-09-28T11:04:42.731Z,96828.38
2022-09-28T11:07:25.837Z,96811.84
2022-09-28T11:09:54.630Z,96817.59
2022-09-28T11:12:35.814Z,96815.63
2022-09-28T11:15:07.612Z,96812.72
2022-09-28T11:17:41.855Z,96814.34
2022-09-28T11:20:31.297Z,96820.41
2022-09-28T11:23:00.852Z,96817.34
2022-09-28T11:25:30.588Z,96816.50
2022-09-28T11:28:00.902Z,96811.53
2022-09-28T11:30:33.610Z,96814.63
2022-09-28T11:33:20.892Z,96815.22
2022-09-28T11:36:12.828Z,96801.44
2022-09-28T11:39:01.148Z,96810.63
2022-09-28T11:41:42.903Z,96796.47
2022-09-28T11:44:32.577Z,96805.66
2022-09-28T11:47:12.029Z,96815.84
2022-09-28T11:49:52.413Z,96813.09
2022-09-28T11:52:24.218Z,96817.94
2022-09-28T11:55:24.901Z,96809.56
2022-09-28T11:58:05.889Z,96819.38
2022-09-28T12:00:41.535Z,96817.34
2022-09-28T12:03:12.276Z,96809.88
2022-09-28T12:05:42.350Z,96812.38
2022-09-28T12:08:35.916Z,96818.75
2022-09-28T12:11:18.356Z,96827.97
2022-09-28T12:13:52.481Z,96822.41
2022-09-28T12:17:03.616Z,96825.59
2022-09-28T12:19:30.239Z,96822.63
2022-09-28T12:22:06.111Z,96820.25
2022-09-28T12:25:02.250Z,96819.53
2022-09-28T12:27:43.122Z,96809.19
2022-09-28T12:30:28.322Z,96825.66
2022-09-28T12:33:15.562Z,96825.78
2022-09-28T12:36:15.433Z,96827.00
2022-09-28T12:39:17.614Z,96831.28
2022-09-28T12:42:16.879Z,96828.44
2022-09-28T12:45:23.764Z,96835.81
2022-09-28T12:48:10.122Z,96834.00
2022-09-28T12:50:55.991Z,96831.13
2022-09-28T12:53:28.047Z,96833.34
2022-09-28T12:56:12.033Z,96835.81
2022-09-28T12:59:00.162Z,96839.03
2022-09-28T13:01:49.873Z,96836.00
2022-09-28T13:04:40.165Z,96825.53
2022-09-28T13:07:43.460Z,96833.88
2022-09-28T13:11:10.702Z,96838.72
2022-09-28T13:14:01.996Z,96833.81
2022-09-28T13:17:00.845Z,96831.88
2022-09-28T13:20:07.692Z,96838.16
2022-09-28T13:23:08.680Z,96838.84
2022-09-28T13:26:15.355Z,96833.59
2022-09-28T13:28:49.864Z,96829.69
2022-09-28T13:31:42.292Z,96829.34
2022-09-28T13:34:23.361Z,96834.94
2022-09-28T13:37:22.301Z,96831.66
2022-09-28T13:40:00.897Z,96820.59
2022-09-28T13:42:43.391Z,96820.44
2022-09-28T13:45:25.085Z,96835.94
2022-09-28T13:48:06.806Z,96832.88
2022-09-28T13:50:38.024Z,96839.00
2022-09-28T13:53:43.243Z,96837.47
2022-09-28T13:56:44.298Z,96825.88
2022-09-28T13:59:30.985Z,96836.00
2022-09-28T14:02:14.590Z,96837.69
2022-09-28T14:08:32.619Z,96841.47
2022-09-28T14:11:30.100Z,96844.41
2022-09-28T14:14:24.165Z,96839.72
2022-09-28T14:17:15.038Z,96834.16
2022-09-28T14:19:44.873Z,96833.97
2022-09-28T14:22:29.204Z,96838.19
2022-09-28T14:28:13.060Z,96845.84
2022-09-28T14:30:43.344Z,96844.91
2022-09-28T14:33:38.989Z,96839.13
2022-09-28T14:36:50.758Z,96839.22
2022-09-28T14:39:49.377Z,96853.44
2022-09-28T14:42:28.132Z,96852.41
2022-09-28T14:45:05.307Z,96866.72
2022-09-28T14:47:42.887Z,96866.66
2022-09-28T14:50:24.760Z,96877.38
2022-09-28T14:52:57.658Z,96871.78
2022-09-28T14:55:29.867Z,96871.44
2022-09-28T14:58:01.092Z,96874.53
2022-09-28T15:00:32.626Z,96871.78
2022-09-28T15:03:05.195Z,96871.63
2022-09-28T15:05:42.655Z,96883.63
2022-09-28T15:11:33.187Z,96889.19
2022-09-28T15:14:08.577Z,96897.63
2022-09-28T15:16:35.814Z,96895.59
2022-09-28T15:19:30.721Z,96894.53
2022-09-28T15:21:57.622Z,96888.84
2022-09-28T15:24:31.673Z,96887.91
2022-09-28T15:27:19.297Z,96894.00
2022-09-28T15:29:59.963Z,96894.22
2022-09-28T15:32:32.470Z,96897.88
2022-09-28T15:35:20.616Z,96888.97
2022-09-28T15:37:52.537Z,96888.47
2022-09-28T15:40:29.903Z,96882.16
2022-09-28T15:43:16.753Z,96888.31
2022-09-28T15:45:47.410Z,96895.34
2022-09-28T15:48:27.401Z,96899.91
2022-09-28T15:51:23.591Z,96897.50
2022-09-28T15:54:03.380Z,96910.13
2022-09-28T15:57:01.322Z,96898.16
2022-09-28T15:59:39.975Z,96907.16
2022-09-28T16:02:14.546Z,96912.06
2022-09-28T16:04:50.594Z,96917.50
2022-09-28T16:07:23.473Z,96920.84
2022-09-28T16:10:07.776Z,96920.56
2022-09-28T16:12:40.269Z,96927.63
2022-09-28T16:15:23.485Z,96919.69
2022-09-28T16:18:08.558Z,96926.66
2022-09-28T16:20:41.010Z,96928.09
2022-09-28T16:23:30.286Z,96933.94
2022-09-28T16:26:03.718Z,96933.81
2022-09-28T16:28:36.249Z,96928.56
2022-09-28T16:31:16.417Z,96934.72
2022-09-28T16:33:54.842Z,96937.06
2022-09-28T16:36:30.154Z,96939.56
2022-09-28T16:39:00.785Z,96943.16
2022-09-28T16:41:32.247Z,96944.63
2022-09-28T16:44:03.558Z,96946.72
2022-09-28T16:46:36.284Z,96950.66
2022-09-28T16:49:22.380Z,96952.28
2022-09-28T16:52:13.567Z,96951.50
2022-09-28T16:55:17.686Z,96958.00
2022-09-28T16:58:04.991Z,96963.88
2022-09-28T17:00:32.601Z,96957.88
2022-09-28T17:03:08.208Z,96959.06
2022-09-28T17:05:40.131Z,96956.13
2022-09-28T17:08:33.913Z,96952.75
2022-09-28T17:11:24.260Z,96956.38
2022-09-28T17:14:23.327Z,96956.13
2022-09-28T17:17:08.199Z,96959.50
2022-09-28T17:19:37.283Z,96955.75
2022-09-28T17:22:08.836Z,96963.56
2022-09-28T17:24:35.697Z,96953.13
2022-09-28T17:27:04.029Z,96959.84
2022-09-28T17:29:33.045Z,96964.94
2022-09-28T17:32:00.215Z,96963.69
2022-09-28T17:34:48.309Z,96966.13
2022-09-28T17:40:11.764Z,96973.81
2022-09-28T17:42:41.168Z,96968.69
2022-09-28T17:45:35.158Z,96976.78
2022-09-28T17:48:25.320Z,96974.22
2022-09-28T17:50:52.389Z,96977.66
2022-09-28T17:53:22.958Z,96981.56
2022-09-28T17:55:50.409Z,96977.09
2022-09-28T17:58:22.393Z,96981.13
2022-09-28T18:00:51.408Z,96983.50
2022-09-28T18:03:21.843Z,96977.88
2022-09-28T18:05:57.007Z,96987.06
2022-09-28T18:08:25.527Z,96989.97
2022-09-28T18:10:52.044Z,96987.59
2022-09-28T18:13:22.508Z,96982.94
2022-09-28T18:15:53.474Z,96985.28
2022-09-28T18:18:21.103Z,96990.75
2022-09-28T18:20:50.909Z,96991.56
2022-09-28T18:25:59.086Z,96991.31
2022-09-28T18:28:26.113Z,96994.84
2022-09-28T18:33:52.601Z,97003.13
2022-09-28T18:36:19.359Z,97010.44
2022-09-28T18:38:46.637Z,97010.44
2022-09-28T18:41:15.874Z,97012.00
2022-09-28T18:43:48.786Z,97014.88
2022-09-28T18:46:16.089Z,97023.31
2022-09-28T18:48:43.613Z,97026.41
2022-09-28T18:51:12.322Z,97032.16
2022-09-28T18:53:39.975Z,97040.06
2022-09-28T18:56:14.520Z,97037.31
2022-09-28T18:58:42.649Z,97049.66
2022-09-28T19:01:31.108Z,97053.09
2022-09-28T19:04:04.003Z,97049.16
2022-09-28T19:06:32.950Z,97049.97
2022-09-28T19:09:04.882Z,97055.72
2022-09-28T19:11:31.641Z,97055.72
2022-09-28T19:13:58.477Z,97059.63
2022-09-28T19:16:28.917Z,97064.56
2022-09-28T19:18:57.320Z,97058.59
2022-09-28T19:21:27.246Z,97066.66
2022-09-28T19:24:07.259Z,97062.25
2022-09-28T19:26:33.983Z,97060.94
2022-09-28T19:29:01.311Z,97063.78
2022-09-28T19:31:28.803Z,97063.28
2022-09-28T19:33:55.574Z,97068.22
2022-09-28T19:36:29.328Z,97071.63
2022-09-28T19:41:45.293Z,97079.44
2022-09-28T19:44:19.612Z,97083.38
2022-09-28T19:46:46.511Z,97085.97
2022-09-28T19:49:19.199Z,97093.53
2022-09-28T19:52:11.544Z,97101.59
2022-09-28T19:54:36.837Z,97099.50
2022-09-28T19:57:08.055Z,97105.75
2022-09-28T19:59:36.841Z,97107.00
2022-09-28T20:02:08.390Z,97119.53
2022-09-28T20:04:35.928Z,97111.94
2022-09-28T20:07:04.065Z,97116.13
2022-09-28T20:09:34.696Z,97126.00
2022-09-28T20:12:04.820Z,97125.00
2022-09-28T20:14:38.164Z,97123.94
2022-09-28T20:17:07.431Z,97130.72
2022-09-28T20:19:35.181Z,97130.16
2022-09-28T20:22:03.192Z,97136.97
2022-09-28T20:24:31.364Z,97140.38
2022-09-28T20:26:59.009Z,97138.53
2022-09-28T20:29:26.842Z,97135.09
2022-09-28T20:31:53.583Z,97141.81
2022-09-28T20:34:20.595Z,97140.50
2022-09-28T20:36:48.540Z,97143.66
2022-09-28T20:39:15.519Z,97137.66
2022-09-28T20:41:42.687Z,97148.88
2022-09-28T20:44:10.523Z,97149.63
2022-09-28T20:46:40.749Z,97159.75
2022-09-28T20:49:10.047Z,97166.44
2022-09-28T20:51:37.116Z,97153.16
2022-09-28T20:54:04.208Z,97160.78
2022-09-28T20:56:40.158Z,97162.56
2022-09-28T20:59:16.008Z,97156.59
2022-09-28T21:01:54.834Z,97163.56
2022-09-28T21:04:21.723Z,97164.84
2022-09-28T21:06:59.672Z,97160.53
2022-09-28T21:09:26.521Z,97163.53
2022-09-28T21:11:54.086Z,97163.47
2022-09-28T21:14:21.507Z,97162.75
2022-09-28T21:16:48.282Z,97165.09
2022-09-28T21:19:26.167Z,97163.06
2022-09-28T21:21:56.829Z,97170.06
2022-09-28T21:24:28.798Z,97165.72
2022-09-28T21:26:57.660Z,97168.78
2022-09-28T21:29:24.896Z,97170.53
2022-09-28T21:31:51.992Z,97169.41
2022-09-28T21:34:21.087Z,97165.97
2022-09-28T21:36:52.706Z,97167.94
2022-09-28T21:39:19.480Z,97160.69
2022-09-28T21:41:51.895Z,97160.66
2022-09-28T21:44:18.916Z,97159.03
2022-09-28T21:46:45.941Z,97159.03
2022-09-28T21:49:14.523Z,97168.66
2022-09-28T21:51:41.208Z,97159.28
2022-09-28T21:54:08.312Z,97163.97
2022-09-28T21:56:34.965Z,97162.13
2022-09-28T21:59:01.662Z,97158.78
2022-09-28T22:01:29.271Z,97160.16
2022-09-28T22:04:01.809Z,97160.25
2022-09-28T22:06:28.646Z,97154.88
2022-09-28T22:08:56.079Z,97156.72
2022-09-28T22:11:25.378Z,97157.47
2022-09-28T22:13:58.094Z,97158.31
2022-09-28T22:16:27.817Z,97159.78
2022-09-28T22:18:57.577Z,97164.97
2022-09-28T22:21:35.241Z,97169.41
2022-09-28T22:24:03.609Z,97173.09
2022-09-28T22:26:32.259Z,97173.16
2022-09-28T22:29:01.079Z,97167.13
2022-09-28T22:31:30.946Z,97165.75
2022-09-28T22:33:58.533Z,97169.09
2022-09-28T22:36:31.930Z,97171.88
2022-09-28T22:38:59.782Z,97176.56
2022-09-28T22:41:26.954Z,97173.94
2022-09-28T22:43:54.696Z,97180.22
2022-09-28T22:46:24.492Z,97176.31
2022-09-28T22:48:53.595Z,97180.97
2022-09-28T22:51:21.589Z,97173.63
2022-09-28T22:53:48.732Z,97177.56
2022-09-28T22:56:18.798Z,97177.38
2022-09-28T22:58:46.919Z,97175.03
2022-09-28T23:01:17.889Z,97173.69
2022-09-28T23:03:45.353Z,97177.09
2022-09-28T23:06:13.959Z,97177.31
2022-09-28T23:08:44.417Z,97180.19
2022-09-28T23:11:11.752Z,97179.03
2022-09-28T23:13:38.538Z,97178.47
2022-09-28T23:16:13.323Z,97177.59
2022-09-28T23:18:43.909Z,97179.38
2022-09-28T23:21:16.143Z,97185.56
2022-09-28T23:23:43.964Z,97191.28
2022-09-28T23:26:17.497Z,97185.28
2022-09-28T23:28:44.365Z,97189.03
2022-09-28T23:31:25.296Z,97193.47
2022-09-28T23:33:52.451Z,97192.69
2022-09-28T23:36:19.141Z,97190.31
2022-09-28T23:38:45.998Z,97199.41
2022-09-28T23:41:15.249Z,97198.31
2022-09-28T23:43:42.090Z,97190.53
2022-09-28T23:46:08.724Z,97199.38
2022-09-28T23:48:35.323Z,97207.06
2022-09-28T23:51:02.398Z,97205.28
2022-09-28T23:53:29.957Z,97199.28
2022-09-28T23:55:56.523Z,97197.41
2022-09-28T23:58:23.993Z,97193.94
